Medora, Indiana
Current Conditions -  °F | °C
As of 12:53 PM on Friday 19 Dec 2014 (Local Time) from KBMG Reporting Station
Broken Clouds Broken Clouds  
Wind Chill: 27°   Ceiling: 2500
Heat Index: 32°   Visibility: 10mi
Dew Point: 23°   Wind: 5mph
Humidity: 69%   Direction: 100°E
Pressure: 30.27"   Gusts: NA
Location:  38.83°N, 86.17°W
Report Text: KBMG 191753Z 10004KT 10SM BKN025 00/M05 A3027 RMK AO2 SLP258 T00001050 10006 21044 58008
Loading
Personal Weather Stations






























Interactive Weather Map New forecast layout! Learn more

10-Day Weather Forecast

Advertisements
Track Severe Weather on mobile